createdAt,value
2022-09-26T00:01:11.212Z,29.27
2022-09-26T00:03:38.187Z,30.38
2022-09-26T00:06:06.790Z,28.48
2022-09-26T00:08:34.026Z,30.02
2022-09-26T00:11:01.918Z,26.23
2022-09-26T00:13:29.349Z,27.02
2022-09-26T00:15:56.436Z,25.15
2022-09-26T00:18:23.329Z,26.40
2022-09-26T00:20:50.308Z,23.20
2022-09-26T00:23:17.208Z,24.70
2022-09-26T00:25:48.213Z,24.63
2022-09-26T00:28:15.388Z,23.48
2022-09-26T00:30:42.412Z,24.42
2022-09-26T00:33:09.327Z,24.73
2022-09-26T00:35:36.288Z,24.23
2022-09-26T00:38:03.270Z,24.63
2022-09-26T00:40:30.620Z,25.85
2022-09-26T00:42:58.027Z,29.15
2022-09-26T00:45:26.610Z,27.02
2022-09-26T00:48:01.809Z,26.73
2022-09-26T00:50:36.747Z,30.38
2022-09-26T00:53:11.010Z,27.63
2022-09-26T00:55:40.169Z,29.08
2022-09-26T00:58:14.969Z,31.58
2022-09-26T01:00:42.461Z,31.40
2022-09-26T01:03:09.452Z,30.10
2022-09-26T01:05:36.337Z,28.67
2022-09-26T01:08:03.148Z,27.27
2022-09-26T01:10:30.258Z,27.00
2022-09-26T01:12:57.769Z,28.00
2022-09-26T01:15:24.648Z,27.33
2022-09-26T01:17:51.466Z,30.58
2022-09-26T01:20:36.848Z,29.90
2022-09-26T01:23:18.630Z,27.02
2022-09-26T01:26:03.832Z,28.03
2022-09-26T01:28:55.572Z,30.00
2022-09-26T01:32:09.945Z,27.40
2022-09-26T01:34:54.991Z,27.60
2022-09-26T01:37:27.828Z,26.92
2022-09-26T01:40:07.157Z,28.03
2022-09-26T01:43:07.036Z,28.08
2022-09-26T01:45:43.863Z,26.70
2022-09-26T01:48:17.129Z,27.55
2022-09-26T01:50:45.833Z,30.48
2022-09-26T01:53:12.607Z,26.67
2022-09-26T01:55:45.489Z,29.40
2022-09-26T01:58:18.812Z,30.38
2022-09-26T02:00:47.178Z,30.48
2022-09-26T02:03:16.734Z,28.83
2022-09-26T02:06:00.688Z,29.23
2022-09-26T02:08:42.330Z,30.02
2022-09-26T02:11:18.932Z,31.05
2022-09-26T02:14:06.385Z,27.63
2022-09-26T02:16:39.044Z,28.70
2022-09-26T02:19:33.691Z,27.50
2022-09-26T02:22:00.568Z,26.88
2022-09-26T02:24:27.805Z,26.90
2022-09-26T02:26:54.728Z,25.70
2022-09-26T02:29:21.629Z,25.83
2022-09-26T02:31:56.787Z,28.83
2022-09-26T02:34:24.669Z,26.70
2022-09-26T02:36:51.890Z,27.40
2022-09-26T02:39:18.889Z,26.77
2022-09-26T02:42:07.691Z,27.80
2022-09-26T02:44:53.028Z,26.23
2022-09-26T02:47:28.850Z,27.80
2022-09-26T02:50:33.637Z,27.90
2022-09-26T02:53:06.389Z,27.83
2022-09-26T02:55:55.909Z,26.73
2022-09-26T02:58:25.669Z,28.97
2022-09-26T03:01:00.894Z,27.80
2022-09-26T03:03:32.706Z,30.52
2022-09-26T03:05:59.787Z,26.33
2022-09-26T03:08:27.808Z,26.17
2022-09-26T03:10:56.030Z,28.07
2022-09-26T03:13:22.869Z,24.35
2022-09-26T03:15:53.989Z,24.95
2022-09-26T03:18:25.533Z,26.23
2022-09-26T03:20:55.047Z,24.35
2022-09-26T03:23:25.389Z,24.23
2022-09-26T03:26:11.669Z,23.52
2022-09-26T03:28:38.568Z,24.67
2022-09-26T03:31:05.751Z,27.48
2022-09-26T03:33:32.568Z,26.40
2022-09-26T03:36:00.574Z,26.10
2022-09-26T03:38:27.689Z,25.80
2022-09-26T03:40:54.724Z,27.30
2022-09-26T03:43:24.397Z,26.42
2022-09-26T03:45:51.473Z,27.13
2022-09-26T03:48:18.408Z,27.70
2022-09-26T03:50:45.610Z,27.65
2022-09-26T03:53:12.488Z,28.10
2022-09-26T03:55:39.565Z,31.65
2022-09-26T03:58:07.009Z,29.08
2022-09-26T04:00:33.973Z,31.83
2022-09-26T04:03:04.849Z,30.40
2022-09-26T04:05:31.788Z,28.05
2022-09-26T04:07:59.167Z,29.35
2022-09-26T04:10:26.109Z,30.63
2022-09-26T04:12:52.989Z,32.70
2022-09-26T04:15:19.859Z,34.00
2022-09-26T04:17:46.593Z,33.80
2022-09-26T04:20:13.533Z,32.13
2022-09-26T04:22:42.428Z,32.17
2022-09-26T04:25:10.373Z,33.40
2022-09-26T04:27:38.107Z,31.25
2022-09-26T04:30:05.378Z,33.00
2022-09-26T04:32:32.228Z,33.55
2022-09-26T04:34:59.048Z,31.10
2022-09-26T04:37:25.854Z,32.43
2022-09-26T04:39:52.648Z,30.85
2022-09-26T04:42:19.790Z,32.67
2022-09-26T04:44:48.359Z,30.52
2022-09-26T04:47:15.228Z,31.33
2022-09-26T04:49:42.049Z,31.30
2022-09-26T04:52:08.811Z,29.42
2022-09-26T04:54:37.497Z,30.73
2022-09-26T04:57:04.812Z,29.73
2022-09-26T04:59:31.748Z,31.45
2022-09-26T05:01:58.696Z,30.53
2022-09-26T05:04:27.784Z,32.50
2022-09-26T05:06:58.014Z,29.35
2022-09-26T05:09:25.355Z,30.25
2022-09-26T05:11:52.427Z,32.10
2022-09-26T05:14:19.308Z,31.97
2022-09-26T05:16:47.318Z,32.28
2022-09-26T05:19:14.429Z,32.03
2022-09-26T05:21:43.279Z,31.80
2022-09-26T05:24:28.403Z,30.52
2022-09-26T05:26:55.971Z,29.43
2022-09-26T05:29:22.748Z,33.08
2022-09-26T05:31:50.094Z,30.00
2022-09-26T05:34:20.158Z,33.03
2022-09-26T05:36:47.463Z,33.25
2022-09-26T05:39:32.731Z,33.77
2022-09-26T05:41:59.818Z,35.50
2022-09-26T05:44:27.659Z,33.47
2022-09-26T05:46:55.238Z,30.75
2022-09-26T05:49:22.167Z,31.52
2022-09-26T05:51:49.146Z,32.13
2022-09-26T05:54:16.697Z,33.33
2022-09-26T05:56:43.550Z,34.35
2022-09-26T05:59:10.600Z,38.25
2022-09-26T06:01:37.555Z,34.42
2022-09-26T06:04:04.448Z,34.53
2022-09-26T06:06:31.310Z,33.28
2022-09-26T06:08:58.215Z,36.97
2022-09-26T06:11:30.792Z,33.92
2022-09-26T06:13:59.648Z,37.38
2022-09-26T06:16:26.916Z,33.23
2022-09-26T06:18:55.626Z,34.58
2022-09-26T06:21:23.029Z,33.65
2022-09-26T06:23:49.908Z,33.13
2022-09-26T06:26:20.189Z,35.42
2022-09-26T06:28:47.312Z,32.87
2022-09-26T06:31:16.884Z,33.70
2022-09-26T06:33:44.187Z,31.95
2022-09-26T06:36:11.789Z,33.10
2022-09-26T06:38:38.730Z,30.60
2022-09-26T06:41:07.546Z,30.70
2022-09-26T06:43:34.656Z,28.73
2022-09-26T06:46:01.574Z,29.95
2022-09-26T06:48:28.394Z,29.48
2022-09-26T06:50:57.132Z,27.27
2022-09-26T06:53:24.037Z,27.43
2022-09-26T06:55:50.868Z,28.63
2022-09-26T06:58:17.770Z,26.38
2022-09-26T07:00:44.790Z,28.25
2022-09-26T07:03:13.643Z,27.38
2022-09-26T07:05:40.475Z,26.33
2022-09-26T07:08:07.287Z,27.08
2022-09-26T07:10:37.676Z,26.52
2022-09-26T07:13:09.519Z,28.20
2022-09-26T07:15:37.028Z,27.98
2022-09-26T07:18:05.048Z,26.60
2022-09-26T07:20:33.476Z,25.98
2022-09-26T07:23:04.227Z,25.67
2022-09-26T07:25:32.202Z,27.20
2022-09-26T07:27:59.413Z,25.88
2022-09-26T07:30:26.452Z,24.50
2022-09-26T07:32:53.333Z,25.60
2022-09-26T07:35:20.356Z,22.77
2022-09-26T07:37:51.903Z,24.95
2022-09-26T07:40:21.284Z,21.83
2022-09-26T07:43:09.243Z,21.83
2022-09-26T07:45:53.667Z,22.73
2022-09-26T07:48:58.751Z,18.30
2022-09-26T07:51:25.676Z,18.42
2022-09-26T07:53:52.671Z,16.83
2022-09-26T07:56:20.832Z,18.63
2022-09-26T07:58:49.008Z,16.48
2022-09-26T08:01:16.729Z,15.35
2022-09-26T08:03:45.494Z,16.02
2022-09-26T08:06:20.294Z,14.75
2022-09-26T08:08:48.379Z,16.53
2022-09-26T08:11:18.306Z,15.45
2022-09-26T08:13:45.575Z,15.38
2022-09-26T08:16:15.432Z,15.30
2022-09-26T08:18:42.359Z,14.18
2022-09-26T08:21:09.232Z,13.60
2022-09-26T08:23:36.194Z,14.52
2022-09-26T08:26:07.174Z,11.52
2022-09-26T08:28:37.674Z,12.77
2022-09-26T08:31:05.265Z,13.70
2022-09-26T08:33:35.634Z,15.37
2022-09-26T08:36:06.852Z,12.27
2022-09-26T08:38:35.533Z,14.20
2022-09-26T08:41:20.382Z,15.95
2022-09-26T08:43:50.006Z,14.85
2022-09-26T08:46:43.834Z,11.67
2022-09-26T08:49:26.191Z,14.63
2022-09-26T08:51:54.494Z,14.18
2022-09-26T08:54:24.254Z,13.98
2022-09-26T08:56:54.349Z,14.25
2022-09-26T08:59:44.813Z,13.63
2022-09-26T09:02:51.373Z,14.00
2022-09-26T09:05:43.882Z,13.60
2022-09-26T09:08:22.258Z,13.90
2022-09-26T09:11:22.411Z,14.30
2022-09-26T09:14:23.471Z,13.87
2022-09-26T09:17:10.995Z,14.43
2022-09-26T09:19:59.664Z,13.45
2022-09-26T09:22:46.511Z,14.55
2022-09-26T09:25:29.795Z,15.10
2022-09-26T09:28:10.671Z,15.00
2022-09-26T09:30:43.854Z,14.70
2022-09-26T09:33:59.791Z,15.15
2022-09-26T09:36:33.672Z,14.10
2022-09-26T09:39:06.575Z,14.65
2022-09-26T09:41:43.947Z,15.87
2022-09-26T09:44:25.911Z,14.35
2022-09-26T09:46:52.876Z,15.48
2022-09-26T09:49:25.816Z,15.23
2022-09-26T09:52:41.094Z,13.60
2022-09-26T09:55:26.128Z,11.57
2022-09-26T09:58:20.489Z,10.85
2022-09-26T10:01:00.433Z,10.05
2022-09-26T10:03:33.458Z,9.73
2022-09-26T10:06:01.038Z,9.80
2022-09-26T10:08:31.442Z,9.37
2022-09-26T10:11:24.251Z,10.52
2022-09-26T10:13:56.175Z,9.50
2022-09-26T10:16:23.483Z,19.20
2022-09-26T10:19:00.802Z,37.15
2022-09-26T10:21:39.503Z,27.07
2022-09-26T10:24:27.569Z,23.67
2022-09-26T10:26:54.550Z,15.68
2022-09-26T10:29:33.990Z,14.68
2022-09-26T10:32:01.209Z,11.68
2022-09-26T10:34:29.673Z,10.53
2022-09-26T10:36:56.951Z,9.60
2022-09-26T10:42:36.634Z,9.40
2022-09-26T10:45:11.280Z,8.57
2022-09-26T10:47:38.189Z,8.53
2022-09-26T10:50:12.513Z,9.90
2022-09-26T10:53:09.043Z,8.60
2022-09-26T10:55:40.672Z,8.65
2022-09-26T10:58:13.667Z,11.60
2022-09-26T11:00:45.106Z,9.13
2022-09-26T11:03:14.575Z,9.10
2022-09-26T11:06:01.345Z,8.75
2022-09-26T11:08:35.152Z,8.85
2022-09-26T11:11:04.467Z,8.32
2022-09-26T11:13:39.751Z,9.97
2022-09-26T11:16:14.843Z,7.35
2022-09-26T11:18:43.194Z,7.22
2022-09-26T11:21:29.310Z,7.40
2022-09-26T11:24:22.870Z,7.10
2022-09-26T11:27:11.620Z,7.43
2022-09-26T11:29:48.093Z,8.18
2022-09-26T11:32:18.991Z,7.07
2022-09-26T11:34:45.928Z,7.75
2022-09-26T11:37:45.333Z,7.68
2022-09-26T11:40:12.320Z,8.13
2022-09-26T11:42:57.834Z,7.55
2022-09-26T11:45:55.854Z,10.70
2022-09-26T11:48:56.511Z,9.32
2022-09-26T11:51:48.327Z,7.60
2022-09-26T11:54:57.176Z,10.50
2022-09-26T11:57:26.721Z,7.43
2022-09-26T12:00:27.660Z,8.13
2022-09-26T12:03:33.653Z,8.65
2022-09-26T12:06:33.563Z,8.35
2022-09-26T12:09:18.768Z,8.00
2022-09-26T12:11:53.560Z,9.35
2022-09-26T12:14:39.393Z,9.65
2022-09-26T12:17:23.833Z,8.18
2022-09-26T12:19:58.027Z,10.52
2022-09-26T12:22:51.391Z,14.57
2022-09-26T12:25:56.172Z,8.40
2022-09-26T12:28:31.953Z,7.00
2022-09-26T12:31:24.330Z,8.07
2022-09-26T12:34:13.072Z,6.82
2022-09-26T12:37:02.615Z,7.97
2022-09-26T12:40:09.517Z,7.43
2022-09-26T12:43:14.206Z,8.55
2022-09-26T12:45:59.917Z,9.63
2022-09-26T12:48:32.712Z,9.80
2022-09-26T12:51:28.746Z,7.20
2022-09-26T12:54:17.552Z,7.70
2022-09-26T12:56:56.574Z,7.50
2022-09-26T13:00:11.772Z,7.97
2022-09-26T13:03:00.125Z,8.68
2022-09-26T13:05:45.275Z,8.30
2022-09-26T13:08:35.033Z,8.57
2022-09-26T13:11:13.627Z,9.60
2022-09-26T13:13:51.319Z,8.85
2022-09-26T13:16:53.880Z,9.18
2022-09-26T13:19:30.129Z,7.83
2022-09-26T13:22:22.150Z,7.53
2022-09-26T13:24:52.594Z,8.15
2022-09-26T13:27:22.517Z,7.20
2022-09-26T13:30:00.813Z,7.82
2022-09-26T13:32:34.989Z,9.10
2022-09-26T13:35:35.929Z,8.07
2022-09-26T13:38:40.033Z,8.07
2022-09-26T13:41:25.431Z,8.68
2022-09-26T13:44:04.625Z,8.30
2022-09-26T13:46:55.910Z,8.40
2022-09-26T13:49:43.031Z,12.65
2022-09-26T13:52:24.597Z,9.68
2022-09-26T13:55:11.331Z,9.50
2022-09-26T13:57:45.812Z,8.68
2022-09-26T14:00:30.221Z,8.73
2022-09-26T14:03:21.865Z,8.52
2022-09-26T14:05:51.110Z,10.40
2022-09-26T14:08:47.320Z,8.95
2022-09-26T14:11:21.693Z,9.43
2022-09-26T14:13:48.972Z,9.27
2022-09-26T14:16:28.134Z,9.52
2022-09-26T14:19:09.335Z,8.43
2022-09-26T14:21:58.088Z,9.27
2022-09-26T14:24:38.693Z,9.18
2022-09-26T14:27:12.268Z,9.87
2022-09-26T14:29:38.947Z,10.02
2022-09-26T14:32:10.316Z,10.60
2022-09-26T14:34:57.486Z,8.77
2022-09-26T14:37:25.548Z,11.07
2022-09-26T14:40:11.241Z,9.33
2022-09-26T14:42:47.091Z,10.18
2022-09-26T14:45:19.508Z,9.18
2022-09-26T14:47:57.389Z,11.05
2022-09-26T14:50:35.414Z,9.48
2022-09-26T14:53:22.150Z,8.37
2022-09-26T14:56:07.230Z,8.70
2022-09-26T14:58:47.081Z,8.40
2022-09-26T15:01:19.041Z,7.88
2022-09-26T15:04:08.830Z,7.63
2022-09-26T15:06:55.908Z,8.57
2022-09-26T15:09:24.990Z,8.35
2022-09-26T15:12:02.988Z,6.90
2022-09-26T15:15:15.491Z,8.10
2022-09-26T15:17:53.054Z,8.93
2022-09-26T15:20:20.450Z,6.67
2022-09-26T15:22:47.867Z,7.55
2022-09-26T15:25:47.071Z,6.93
2022-09-26T15:28:13.910Z,6.72
2022-09-26T15:30:41.999Z,7.88
2022-09-26T15:33:16.653Z,7.60
2022-09-26T15:35:53.111Z,6.82
2022-09-26T15:38:19.952Z,6.70
2022-09-26T15:41:00.352Z,7.32
2022-09-26T15:43:27.314Z,8.90
2022-09-26T15:45:58.757Z,6.50
2022-09-26T15:48:25.916Z,8.20
2022-09-26T15:50:52.652Z,7.28
2022-09-26T15:53:34.533Z,7.30
2022-09-26T15:56:06.951Z,7.43
2022-09-26T15:58:57.470Z,6.17
2022-09-26T16:01:26.208Z,8.38
2022-09-26T16:04:00.500Z,9.65
2022-09-26T16:06:28.828Z,9.90
2022-09-26T16:09:04.171Z,6.57
2022-09-26T16:11:31.148Z,7.07
2022-09-26T16:13:58.257Z,6.57
2022-09-26T16:16:29.889Z,7.65
2022-09-26T16:18:58.929Z,7.03
2022-09-26T16:21:27.730Z,8.77
2022-09-26T16:23:56.708Z,10.00
2022-09-26T16:26:32.099Z,7.95
2022-09-26T16:29:00.337Z,7.30
2022-09-26T16:31:53.445Z,9.27
2022-09-26T16:34:21.750Z,9.23
2022-09-26T16:36:49.490Z,9.67
2022-09-26T16:39:30.009Z,10.05
2022-09-26T16:42:07.547Z,11.25
2022-09-26T16:44:40.417Z,10.32
2022-09-26T16:47:36.288Z,12.07
2022-09-26T16:50:26.726Z,10.63
2022-09-26T16:52:54.165Z,11.25
2022-09-26T16:55:21.130Z,12.98
2022-09-26T16:57:58.614Z,12.98
2022-09-26T17:00:52.697Z,10.73
2022-09-26T17:03:27.686Z,13.17
2022-09-26T17:05:58.332Z,12.88
2022-09-26T17:08:26.518Z,13.40
2022-09-26T17:10:53.734Z,12.75
2022-09-26T17:13:22.828Z,11.15
2022-09-26T17:15:55.631Z,12.47
2022-09-26T17:18:29.277Z,13.20
2022-09-26T17:20:56.623Z,10.68
2022-09-26T17:23:39.467Z,11.77
2022-09-26T17:26:07.836Z,11.07
2022-09-26T17:28:40.020Z,13.03
2022-09-26T17:31:07.909Z,11.48
2022-09-26T17:33:39.236Z,11.93
2022-09-26T17:36:10.853Z,10.88
2022-09-26T17:38:40.370Z,14.57
2022-09-26T17:41:07.484Z,11.43
2022-09-26T17:43:34.649Z,10.93
2022-09-26T17:46:01.603Z,11.35
2022-09-26T17:48:29.210Z,12.07
2022-09-26T17:50:56.215Z,12.40
2022-09-26T17:53:23.528Z,12.50
2022-09-26T17:55:50.654Z,13.35
2022-09-26T17:58:18.169Z,12.93
2022-09-26T18:00:45.114Z,11.65
2022-09-26T18:03:28.128Z,12.80
2022-09-26T18:05:55.012Z,12.30
2022-09-26T18:08:29.451Z,12.80
2022-09-26T18:11:03.172Z,13.02
2022-09-26T18:13:33.986Z,11.73
2022-09-26T18:16:01.171Z,11.25
2022-09-26T18:18:29.081Z,12.73
2022-09-26T18:20:57.422Z,13.25
2022-09-26T18:23:36.694Z,13.55
2022-09-26T18:26:04.090Z,12.10
2022-09-26T18:28:30.937Z,12.20
2022-09-26T18:30:59.213Z,14.20
2022-09-26T18:33:27.962Z,13.57
2022-09-26T18:35:55.289Z,11.48
2022-09-26T18:38:22.337Z,13.73
2022-09-26T18:40:51.835Z,13.88
2022-09-26T18:43:20.461Z,16.17
2022-09-26T18:45:47.314Z,14.57
2022-09-26T18:48:29.477Z,14.57
2022-09-26T18:50:57.689Z,16.48
2022-09-26T18:53:27.055Z,15.18
2022-09-26T18:56:12.249Z,17.93
2022-09-26T18:58:39.548Z,15.60
2022-09-26T19:01:33.241Z,17.45
2022-09-26T19:04:07.172Z,16.50
2022-09-26T19:06:38.414Z,16.60
2022-09-26T19:09:06.579Z,18.00
2022-09-26T19:11:35.098Z,15.65
2022-09-26T19:14:17.589Z,18.08
2022-09-26T19:16:45.311Z,18.23
2022-09-26T19:19:12.552Z,21.15
2022-09-26T19:22:08.101Z,18.40
2022-09-26T19:24:55.291Z,18.85
2022-09-26T19:27:30.654Z,20.15
2022-09-26T19:30:06.774Z,17.60
2022-09-26T19:32:38.338Z,17.83
2022-09-26T19:35:22.194Z,16.97
2022-09-26T19:37:49.337Z,20.02
2022-09-26T19:40:17.186Z,18.90
2022-09-26T19:42:44.249Z,19.50
2022-09-26T19:45:11.467Z,17.17
2022-09-26T19:47:39.494Z,17.43
2022-09-26T19:50:06.971Z,17.73
2022-09-26T19:52:33.908Z,18.40
2022-09-26T19:55:00.950Z,21.02
2022-09-26T19:57:28.041Z,18.08
2022-09-26T19:59:54.893Z,19.23
2022-09-26T20:02:23.222Z,19.38
2022-09-26T20:04:50.753Z,19.90
2022-09-26T20:07:19.332Z,18.55
2022-09-26T20:09:46.399Z,16.83
2022-09-26T20:12:13.290Z,18.80
2022-09-26T20:14:40.268Z,16.30
2022-09-26T20:17:24.497Z,19.52
2022-09-26T20:19:55.153Z,17.65
2022-09-26T20:22:24.815Z,18.67
2022-09-26T20:24:53.190Z,16.90
2022-09-26T20:27:28.149Z,18.17
2022-09-26T20:30:13.858Z,21.25
2022-09-26T20:32:41.470Z,17.67
2022-09-26T20:35:11.321Z,17.60
2022-09-26T20:37:39.923Z,19.63
2022-09-26T20:40:13.556Z,17.55
2022-09-26T20:42:40.746Z,17.38
2022-09-26T20:45:15.146Z,17.27
2022-09-26T20:47:43.033Z,18.60
2022-09-26T20:50:14.548Z,19.13
2022-09-26T20:52:42.668Z,20.17
2022-09-26T20:55:18.109Z,18.05
2022-09-26T20:57:45.613Z,17.73
2022-09-26T21:00:16.429Z,18.35
2022-09-26T21:02:43.884Z,18.03
2022-09-26T21:05:22.854Z,17.23
2022-09-26T21:07:50.428Z,18.50
2022-09-26T21:10:24.310Z,17.17
2022-09-26T21:12:51.589Z,17.70
2022-09-26T21:15:18.872Z,18.17
2022-09-26T21:17:46.588Z,18.05
2022-09-26T21:20:17.110Z,17.77
2022-09-26T21:22:44.246Z,17.98
2022-09-26T21:25:18.011Z,17.40
2022-09-26T21:27:48.469Z,18.03
2022-09-26T21:30:15.931Z,18.75
2022-09-26T21:32:59.551Z,18.15
2022-09-26T21:35:29.895Z,19.52
2022-09-26T21:37:57.335Z,19.90
2022-09-26T21:40:26.294Z,18.33
2022-09-26T21:42:55.550Z,16.92
2022-09-26T21:45:27.273Z,17.02
2022-09-26T21:47:55.808Z,18.63
2022-09-26T21:50:23.070Z,16.42
2022-09-26T21:52:51.808Z,16.80
2022-09-26T21:55:21.889Z,16.88
2022-09-26T21:57:49.089Z,19.90
2022-09-26T22:00:16.009Z,18.27
2022-09-26T22:02:42.876Z,20.33
2022-09-26T22:05:10.287Z,18.63
2022-09-26T22:07:37.309Z,18.38
2022-09-26T22:10:05.269Z,18.23
2022-09-26T22:12:32.309Z,19.50
2022-09-26T22:15:01.789Z,18.77
2022-09-26T22:17:28.756Z,20.03
2022-09-26T22:19:55.589Z,18.17
2022-09-26T22:22:22.394Z,17.40
2022-09-26T22:24:49.233Z,15.80
2022-09-26T22:27:16.108Z,17.48
2022-09-26T22:29:42.954Z,16.93
2022-09-26T22:32:09.787Z,17.67
2022-09-26T22:34:36.731Z,15.73
2022-09-26T22:37:03.568Z,18.33
2022-09-26T22:39:30.389Z,16.40
2022-09-26T22:41:57.197Z,20.40
2022-09-26T22:44:24.348Z,16.88
2022-09-26T22:46:51.168Z,17.00
2022-09-26T22:49:18.071Z,16.65
2022-09-26T22:51:44.888Z,16.60
2022-09-26T22:54:12.327Z,17.37
2022-09-26T22:56:39.187Z,16.00
2022-09-26T22:59:06.089Z,16.40
2022-09-26T23:01:32.977Z,16.70
2022-09-26T23:04:00.547Z,15.60
2022-09-26T23:06:27.615Z,17.43
2022-09-26T23:08:55.009Z,16.58
2022-09-26T23:11:22.811Z,16.85
2022-09-26T23:13:52.710Z,17.05
2022-09-26T23:16:21.363Z,15.82
2022-09-26T23:18:48.550Z,16.50
2022-09-26T23:21:19.971Z,16.50
2022-09-26T23:23:48.889Z,16.02
2022-09-26T23:26:26.691Z,15.23
2022-09-26T23:28:54.346Z,17.27
2022-09-26T23:31:21.349Z,16.10
2022-09-26T23:33:48.279Z,17.63
2022-09-26T23:36:15.328Z,15.85
2022-09-26T23:38:42.110Z,16.00
2022-09-26T23:41:09.893Z,17.92
2022-09-26T23:43:36.830Z,14.93
2022-09-26T23:46:03.878Z,13.27
2022-09-26T23:48:30.794Z,16.85
2022-09-26T23:50:57.780Z,12.23
2022-09-26T23:53:24.649Z,14.57
2022-09-26T23:55:51.528Z,15.60
2022-09-26T23:58:18.408Z,16.52
